Time;durP1;ratioP1;P1;durP2;ratioP2;P2;SDS_P1;SDS_P2;PMS_P1;PMS_P2;Temp;Humidity;BMP_temperature;BMP_pressure;BME280_temperature;BME280_humidity;BME280_pressure;Samples;Min_cycle;Max_cycle;Signal;HPM_P1;HPM_P2
2022/05/17 00:00:18;;;;;;;;;;;;;;;12.25;100.00;96376.81;1043184;28;19978;-68
2022/05/17 00:00:48;;;;;;;;;;;;;;;12.23;100.00;96378.91;1039555;28;19945;-68
2022/05/17 00:01:19;;;;;;;;;;;;;;;12.23;100.00;96369.16;1036170;28;20407;-69
2022/05/17 00:01:49;;;;;;;;;;;;;;;12.23;100.00;96373.63;1035280;28;20008;-68
2022/05/17 00:02:19;;;;;;;;;;;;;;;12.24;100.00;96375.25;1032953;28;19917;-68
2022/05/17 00:02:49;;;;;;;;;;;;;;;12.05;100.00;96345.94;1039785;28;19921;-68
2022/05/17 00:03:20;;;;;;;;;;;;;;;12.22;100.00;96377.34;1033608;28;19914;-67
2022/05/17 00:03:50;;;;;;;;;;;;;;;12.25;100.00;96371.56;1031219;28;20687;-68
2022/05/17 00:04:20;;;;;;;;;;;;;;;12.26;100.00;96373.13;1035218;28;19918;-68
2022/05/17 00:04:51;;;;;;;;;;;;;;;12.25;100.00;96379.44;1026895;28;19925;-67
2022/05/17 00:05:21;;;;;;;;;;;;;;;12.24;100.00;96365.50;1027219;28;19930;-68
2022/05/17 00:05:51;;;;;;;;;;;;;;;12.26;100.00;96378.38;1027324;28;20395;-67
2022/05/17 00:06:22;;;;;;;;;;;;;;;12.25;100.00;96374.19;1031038;28;19926;-68
2022/05/17 00:06:52;;;;;;;;;;;;;;;12.26;100.00;96375.75;1038542;28;19975;-69
2022/05/17 00:07:25;;;;;;;;;;;;;;;12.26;100.00;96373.13;1038385;28;19917;-69
2022/05/17 00:08:16;;;;;;;;;;;;;;;12.24;100.00;96372.63;1034888;28;19922;-68
2022/05/17 00:08:46;;;;;;;;;;;;;;;12.23;100.00;96374.44;1038231;28;19955;-68
2022/05/17 00:09:17;;;;;;;;;;;;;;;12.24;100.00;96375.25;1039185;28;19924;-67
2022/05/17 00:09:47;;;;;;;;;;;;;;;12.23;100.00;96371.78;1034242;28;19914;-68
2022/05/17 00:10:17;;;;;;;;;;;;;;;12.26;100.00;96378.38;1030800;28;19926;-68
2022/05/17 00:10:49;;;;;;;;;;;;;;;12.26;100.00;96373.13;1031193;28;19929;-68
2022/05/17 00:11:19;;;;;;;;;;;;;;;12.24;100.00;96369.97;1035247;28;20311;-68
2022/05/17 00:11:49;;;;;;;;;;;;;;;12.24;100.00;96375.25;1034508;28;20184;-69
2022/05/17 00:12:20;;;;;;;;;;;;;;;12.24;100.00;96376.03;1034610;28;20027;-70
2022/05/17 00:12:56;;;;;;;;;;;;;;;12.24;100.00;96369.97;1035159;28;20418;-68
2022/05/17 00:13:27;;;;;;;;;;;;;;;12.22;100.00;96372.84;1034223;28;20024;-69
2022/05/17 00:14:01;;;;;;;;;;;;;;;12.22;100.00;96364.97;1036641;28;19945;-69
2022/05/17 00:14:32;;;;;;;;;;;;;;;12.21;100.00;96371.28;1040418;28;19917;-68
2022/05/17 00:15:03;;;;;;;;;;;;;;;12.22;100.00;96372.06;1039069;28;20031;-68
2022/05/17 00:15:33;;;;;;;;;;;;;;;12.22;100.00;96369.44;1035164;28;20322;-68
2022/05/17 00:16:04;;;;;;;;;;;;;;;12.22;100.00;96366.81;1030972;28;20180;-68
2022/05/17 00:16:34;;;;;;;;;;;;;;;12.21;100.00;96373.13;1026723;28;19918;-70
2022/05/17 00:17:05;;;;;;;;;;;;;;;12.22;100.00;96372.06;1030950;28;20351;-68
2022/05/17 00:17:35;;;;;;;;;;;;;;;12.20;100.00;96364.41;1031094;28;19924;-68
2022/05/17 00:18:05;;;;;;;;;;;;;;;12.21;100.00;96373.13;1035287;28;19925;-68
2022/05/17 00:18:37;;;;;;;;;;;;;;;12.20;100.00;96368.88;1039169;28;20286;-68
2022/05/17 00:19:08;;;;;;;;;;;;;;;12.22;100.00;96372.06;1038979;28;19913;-68
2022/05/17 00:19:39;;;;;;;;;;;;;;;12.25;100.00;96376.81;1039023;28;20325;-68
2022/05/17 00:20:09;;;;;;;;;;;;;;;12.25;100.00;96372.34;1043094;28;20368;-68
2022/05/17 00:20:41;;;;;;;;;;;;;;;12.23;100.00;96373.63;1039315;28;19921;-67
2022/05/17 00:21:11;;;;;;;;;;;;;;;12.23;100.00;96373.63;1034728;28;20390;-68
2022/05/17 00:21:41;;;;;;;;;;;;;;;12.20;100.00;96368.88;1032238;28;19921;-68
2022/05/17 00:22:12;;;;;;;;;;;;;;;12.23;100.00;96371.00;1034747;28;19918;-69
2022/05/17 00:22:45;;;;;;;;;;;;;;;12.21;100.00;96371.28;1038672;28;19917;-68
2022/05/17 00:23:15;;;;;;;;;;;;;;;12.21;100.00;96375.75;1035087;28;20023;-68
2022/05/17 00:23:46;;;;;;;;;;;;;;;12.21;100.00;96371.28;1034836;28;20395;-68
2022/05/17 00:24:16;;;;;;;;;;;;;;;12.20;100.00;96374.16;1031003;28;20001;-68
2022/05/17 00:24:47;;;;;;;;;;;;;;;12.20;100.00;96369.69;1022492;28;19949;-68
2022/05/17 00:25:18;;;;;;;;;;;;;;;12.19;100.00;96373.38;1021522;28;19925;-68
2022/05/17 00:25:48;;;;;;;;;;;;;;;12.18;100.00;96378.91;1026375;28;20296;-67
2022/05/17 00:26:18;;;;;;;;;;;;;;;12.19;100.00;96370.72;1027236;28;20376;-68
2022/05/17 00:26:48;;;;;;;;;;;;;;;12.17;100.00;96369.41;1031098;28;19918;-68
2022/05/17 00:27:19;;;;;;;;;;;;;;;12.18;100.00;96371.78;1034268;28;19921;-68
2022/05/17 00:27:49;;;;;;;;;;;;;;;12.19;100.00;96372.56;1039332;28;19920;-68
2022/05/17 00:28:19;;;;;;;;;;;;;;;12.21;100.00;96370.50;1039149;28;20390;-68
2022/05/17 00:28:50;;;;;;;;;;;;;;;12.21;100.00;96367.88;1034321;28;19913;-68
2022/05/17 00:29:20;;;;;;;;;;;;;;;12.21;100.00;96370.50;1034893;28;20505;-68
2022/05/17 00:29:50;;;;;;;;;;;;;;;12.22;100.00;96377.34;1026334;28;19914;-68
2022/05/17 00:30:21;;;;;;;;;;;;;;;12.18;100.00;96371.78;1030150;28;20418;-69
2022/05/17 00:30:51;;;;;;;;;;;;;;;12.18;100.00;96371.00;1026854;28;19953;-70
2022/05/17 00:31:21;;;;;;;;;;;;;;;12.20;100.00;96374.16;1026796;28;19914;-68
2022/05/17 00:31:51;;;;;;;;;;;;;;;12.18;100.00;96369.16;1035109;28;19917;-68
2022/05/17 00:32:22;;;;;;;;;;;;;;;12.18;100.00;96371.78;1036992;28;20350;-67
2022/05/17 00:32:52;;;;;;;;;;;;;;;12.18;100.00;96371.00;1043021;28;19921;-68
2022/05/17 00:33:22;;;;;;;;;;;;;;;12.18;100.00;96374.41;1038990;28;19951;-68
2022/05/17 00:33:53;;;;;;;;;;;;;;;12.18;100.00;96379.69;1038998;28;20370;-68
2022/05/17 00:34:24;;;;;;;;;;;;;;;12.16;100.00;96373.09;1039154;28;20272;-68
2022/05/17 00:34:55;;;;;;;;;;;;;;;12.16;100.00;96379.13;1027181;28;19992;-68
2022/05/17 00:35:26;;;;;;;;;;;;;;;12.15;100.00;96376.78;1034695;28;20435;-69
2022/05/17 00:35:56;;;;;;;;;;;;;;;12.16;100.00;96373.09;1035203;28;19918;-68
2022/05/17 00:36:26;;;;;;;;;;;;;;;12.16;100.00;96376.50;1035087;28;19924;-69
2022/05/17 00:36:57;;;;;;;;;;;;;;;12.17;100.00;96375.47;1035160;28;19913;-69
2022/05/17 00:37:27;;;;;;;;;;;;;;;12.17;100.00;96377.28;1027652;28;20020;-68
2022/05/17 00:37:57;;;;;;;;;;;;;;;12.19;100.00;96376.00;1031105;28;20335;-68
2022/05/17 00:38:27;;;;;;;;;;;;;;;12.19;100.00;96381.25;1031312;28;20269;-68
2022/05/17 00:38:59;;;;;;;;;;;;;;;12.20;100.00;96380.19;1036804;28;19914;-67
2022/05/17 00:39:29;;;;;;;;;;;;;;;12.21;100.00;96376.53;1043233;28;19955;-69
2022/05/17 00:39:59;;;;;;;;;;;;;;;12.21;100.00;96378.38;1034426;28;19960;-67
2022/05/17 00:40:29;;;;;;;;;;;;;;;12.22;100.00;96377.34;1030655;28;19918;-69
2022/05/17 00:41:00;;;;;;;;;;;;;;;12.20;100.00;96377.56;1027058;28;20932;-68
2022/05/17 00:41:30;;;;;;;;;;;;;;;12.20;100.00;96382.03;1023167;28;19915;-68
2022/05/17 00:42:01;;;;;;;;;;;;;;;12.21;100.00;96381.03;1026790;28;19914;-68
2022/05/17 00:42:31;;;;;;;;;;;;;;;12.19;100.00;96378.63;1033373;28;19944;-68
2022/05/17 00:43:01;;;;;;;;;;;;;;;12.19;100.00;96377.84;1034949;28;19920;-68
2022/05/17 00:44:45;;;;;;;;;;;;;;;12.18;100.00;96378.91;1022462;29;19922;-68
2022/05/17 00:45:15;;;;;;;;;;;;;;;12.20;100.00;96382.03;1027288;28;19986;-68
2022/05/17 00:45:46;;;;;;;;;;;;;;;12.18;100.00;96386.78;1032388;28;20439;-68
2022/05/17 00:46:16;;;;;;;;;;;;;;;12.16;100.00;96378.34;1034986;28;19913;-67
2022/05/17 00:46:48;;;;;;;;;;;;;;;12.16;100.00;96379.13;1027160;28;19910;-68
2022/05/17 00:47:21;;;;;;;;;;;;;;;12.18;100.00;96381.53;1023031;28;20419;-67
2022/05/17 00:47:53;;;;;;;;;;;;;;;12.18;100.00;96378.91;1027114;28;19914;-68
2022/05/17 00:48:23;;;;;;;;;;;;;;;12.17;100.00;96378.09;1031681;28;20513;-68
2022/05/17 00:48:54;;;;;;;;;;;;;;;12.16;100.00;96386.25;1034234;28;19921;-68
2022/05/17 00:49:31;;;;;;;;;;;;;;;12.16;100.00;96376.50;1027656;28;20238;-69
2022/05/17 00:50:02;;;;;;;;;;;;;;;12.17;100.00;96385.19;1025059;28;20110;-68
2022/05/17 00:50:37;;;;;;;;;;;;;;;12.18;100.00;96384.16;1021198;28;19915;-68
2022/05/17 00:51:07;;;;;;;;;;;;;;;12.17;100.00;96380.75;1024388;28;19917;-69
2022/05/17 00:51:38;;;;;;;;;;;;;;;12.18;100.00;96376.25;1027760;28;20009;-68
2022/05/17 00:52:12;;;;;;;;;;;;;;;12.19;100.00;96381.25;1027413;28;20079;-68
2022/05/17 00:52:46;;;;;;;;;;;;;;;12.17;100.00;96374.66;1032436;28;19953;-68
2022/05/17 00:53:20;;;;;;;;;;;;;;;12.18;100.00;96381.53;1030176;28;19920;-68
2022/05/17 00:53:51;;;;;;;;;;;;;;;12.17;100.00;96379.91;1028558;28;19949;-68
2022/05/17 00:54:21;;;;;;;;;;;;;;;12.16;100.00;96373.09;1023092;28;20388;-68
2022/05/17 00:54:52;;;;;;;;;;;;;;;12.15;100.00;96376.78;1024316;28;19917;-68
2022/05/17 00:55:24;;;;;;;;;;;;;;;12.15;100.00;96372.31;1031004;28;19921;-68
2022/05/17 00:55:55;;;;;;;;;;;;;;;12.14;100.00;96372.53;1026978;28;20415;-68
2022/05/17 00:56:25;;;;;;;;;;;;;;;12.13;100.00;96368.34;1022815;29;20172;-70
2022/05/17 00:57:01;;;;;;;;;;;;;;;12.12;100.00;96378.06;1022953;29;19910;-68
2022/05/17 00:57:55;;;;;;;;;;;;;;;12.13;100.00;96374.38;1027744;28;20316;-68
2022/05/17 00:58:28;;;;;;;;;;;;;;;12.13;100.00;96376.22;1034223;28;19925;-68
2022/05/17 00:58:58;;;;;;;;;;;;;;;12.13;100.00;96368.34;1030759;28;19920;-70
2022/05/17 00:59:29;;;;;;;;;;;;;;;12.13;100.00;96377.00;1033197;28;20450;-68
2022/05/17 01:00:03;;;;;;;;;;;;;;;12.12;100.00;96370.19;1029630;28;20275;-68
2022/05/17 01:00:33;;;;;;;;;;;;;;;12.10;100.00;96374.91;1029956;28;19914;-68
2022/05/17 01:01:06;;;;;;;;;;;;;;;12.10;100.00;96368.84;1031264;28;19910;-69
2022/05/17 01:01:36;;;;;;;;;;;;;;;12.10;100.00;96374.91;1033874;28;20012;-68
2022/05/17 01:02:07;;;;;;;;;;;;;;;12.09;100.00;96373.31;1025532;28;20371;-67
2022/05/17 01:02:37;;;;;;;;;;;;;;;12.07;100.00;96372.78;1030660;28;19915;-68
2022/05/17 01:03:08;;;;;;;;;;;;;;;12.06;100.00;96373.03;1032630;28;20137;-68
2022/05/17 01:03:42;;;;;;;;;;;;;;;12.05;100.00;96366.22;1035058;28;20480;-68
2022/05/17 01:04:15;;;;;;;;;;;;;;;12.03;100.00;96372.50;1039665;28;20352;-68
2022/05/17 01:04:45;;;;;;;;;;;;;;;12.02;100.00;96373.56;1042680;28;19920;-68
2022/05/17 01:05:15;;;;;;;;;;;;;;;12.00;100.00;96370.41;1039251;28;19913;-68
2022/05/17 01:05:46;;;;;;;;;;;;;;;11.98;100.00;96375.13;1039295;28;19917;-68
2022/05/17 01:06:16;;;;;;;;;;;;;;;11.98;100.00;96367.22;1043073;28;20309;-68
2022/05/17 01:06:47;;;;;;;;;;;;;;;12.01;100.00;96377.25;1042633;28;20105;-68
2022/05/17 01:07:18;;;;;;;;;;;;;;;11.99;100.00;96370.63;1039103;28;20295;-68
2022/05/17 01:07:51;;;;;;;;;;;;;;;12.00;100.00;96370.41;1030606;28;20274;-69
2022/05/17 01:08:21;;;;;;;;;;;;;;;11.97;100.00;96365.66;1023930;28;19914;-68
2022/05/17 01:08:51;;;;;;;;;;;;;;;11.96;100.00;96363.25;1023007;28;19915;-68
2022/05/17 01:09:22;;;;;;;;;;;;;;;11.95;100.00;96373.00;1025407;28;19915;-68
2022/05/17 01:09:52;;;;;;;;;;;;;;;11.96;100.00;96373.78;1033902;28;19913;-67
2022/05/17 01:10:24;;;;;;;;;;;;;;;11.95;100.00;96366.94;1034005;28;20298;-69
2022/05/17 01:10:54;;;;;;;;;;;;;;;11.94;100.00;96375.88;1038230;28;19917;-67
2022/05/17 01:11:24;;;;;;;;;;;;;;;11.93;100.00;96372.44;1035185;28;19933;-68
2022/05/17 01:11:54;;;;;;;;;;;;;;;11.95;100.00;96367.72;1038838;28;20027;-69
2022/05/17 01:12:25;;;;;;;;;;;;;;;11.96;100.00;96364.03;1034265;28;20478;-69
2022/05/17 01:15:22;;;;;;;;;;;;;;;12.02;100.00;96368.28;1042259;28;20080;-68
2022/05/17 01:15:53;;;;;;;;;;;;;;;12.06;100.00;96367.78;1039011;28;19944;-68
2022/05/17 01:16:25;;;;;;;;;;;;;;;12.09;100.00;96369.91;1038890;28;20425;-67
2022/05/17 01:16:55;;;;;;;;;;;;;;;12.09;100.00;96373.31;1034915;28;20410;-68
2022/05/17 01:17:26;;;;;;;;;;;;;;;12.07;100.00;96369.34;1034805;28;19913;-68
2022/05/17 01:17:56;;;;;;;;;;;;;;;12.05;100.00;96366.22;1038381;28;19921;-68
2022/05/17 01:18:29;;;;;;;;;;;;;;;12.06;100.00;96375.69;1038740;28;19923;-68
2022/05/17 01:19:00;;;;;;;;;;;;;;;12.02;100.00;96367.50;1034262;28;20391;-69
2022/05/17 01:19:30;;;;;;;;;;;;;;;12.00;100.00;96362.50;1027170;28;19919;-69
2022/05/17 01:20:01;;;;;;;;;;;;;;;12.00;100.00;96365.16;1034168;28;19913;-68
2022/05/17 01:20:34;;;;;;;;;;;;;;;11.98;100.00;96363.81;1030886;28;19910;-68
2022/05/17 01:21:04;;;;;;;;;;;;;;;11.98;100.00;96367.22;1031349;28;19922;-67
2022/05/17 01:21:35;;;;;;;;;;;;;;;11.98;100.00;96374.31;1034360;28;20811;-67
2022/05/17 01:22:05;;;;;;;;;;;;;;;11.95;100.00;96365.09;1031028;28;19945;-68
2022/05/17 01:22:36;;;;;;;;;;;;;;;11.97;100.00;96365.66;1035402;28;20410;-70
2022/05/17 01:23:06;;;;;;;;;;;;;;;11.98;100.00;96372.47;1037528;28;19918;-68
2022/05/17 01:23:36;;;;;;;;;;;;;;;11.99;100.00;96366.16;1034213;28;19948;-68
2022/05/17 01:24:07;;;;;;;;;;;;;;;11.98;100.00;96367.22;1034863;28;20466;-68
2022/05/17 01:24:37;;;;;;;;;;;;;;;11.98;100.00;96367.22;1030343;28;19918;-68
2022/05/17 01:25:07;;;;;;;;;;;;;;;11.98;100.00;96377.75;1030778;28;19936;-68
2022/05/17 01:25:40;;;;;;;;;;;;;;;11.97;100.00;96373.53;1030677;28;19957;-68
2022/05/17 01:26:15;;;;;;;;;;;;;;;11.98;100.00;96367.22;1031288;28;19922;-68
2022/05/17 01:26:48;;;;;;;;;;;;;;;12.00;100.00;96374.84;1034952;28;20003;-68
2022/05/17 01:27:23;;;;;;;;;;;;;;;12.02;100.00;96378.03;1034176;28;19959;-69
2022/05/17 01:28:00;;;;;;;;;;;;;;;12.07;100.00;96369.34;1032378;28;20139;-67
2022/05/17 01:28:31;;;;;;;;;;;;;;;12.06;100.00;96375.69;1034834;28;19914;-68
2022/05/17 01:29:01;;;;;;;;;;;;;;;12.04;100.00;96386.47;1032099;28;20431;-68
2022/05/17 01:29:41;;;;;;;;;;;;;;;12.05;100.00;96371.47;1031592;28;19957;-68
2022/05/17 01:30:19;;;;;;;;;;;;;;;12.03;100.00;96371.72;1034739;28;19918;-68
2022/05/17 01:30:49;;;;;;;;;;;;;;;12.02;100.00;96367.50;1030817;28;19914;-68
2022/05/17 01:31:19;;;;;;;;;;;;;;;12.02;100.00;96373.56;1032990;28;19918;-68
2022/05/17 01:31:51;;;;;;;;;;;;;;;12.01;100.00;96371.19;1032021;28;19946;-68
2022/05/17 01:32:21;;;;;;;;;;;;;;;11.98;100.00;96375.13;1034635;28;20482;-69
2022/05/17 01:32:52;;;;;;;;;;;;;;;11.96;100.00;96364.03;1033273;28;19928;-68
2022/05/17 01:33:22;;;;;;;;;;;;;;;11.95;100.00;96365.09;1026626;28;20361;-68
2022/05/17 01:33:52;;;;;;;;;;;;;;;11.95;100.00;96370.34;1028283;28;20575;-68
2022/05/17 01:34:23;;;;;;;;;;;;;;;11.97;100.00;96370.91;1030797;28;19913;-68
2022/05/17 01:34:53;;;;;;;;;;;;;;;11.98;100.00;96366.44;1030493;28;19924;-68
2022/05/17 01:35:25;;;;;;;;;;;;;;;11.96;100.00;96377.19;1037864;28;19920;-68
2022/05/17 01:35:55;;;;;;;;;;;;;;;11.96;100.00;96371.94;1030662;28;19913;-68
2022/05/17 01:36:25;;;;;;;;;;;;;;;11.96;100.00;96373.78;1034688;28;19913;-68
2022/05/17 01:36:55;;;;;;;;;;;;;;;11.96;100.00;96369.31;1038367;28;20413;-68
2022/05/17 01:37:26;;;;;;;;;;;;;;;11.94;100.00;96376.69;1034662;28;19909;-69
2022/05/17 01:37:56;;;;;;;;;;;;;;;11.94;100.00;96374.06;1038047;28;19917;-68
2022/05/17 01:38:27;;;;;;;;;;;;;;;11.96;100.00;96368.53;1026751;28;19914;-68
2022/05/17 01:38:57;;;;;;;;;;;;;;;11.95;100.00;96362.47;1026588;28;19929;-68
2022/05/17 01:39:28;;;;;;;;;;;;;;;11.97;100.00;96370.91;1026711;28;20314;-68
2022/05/17 01:39:58;;;;;;;;;;;;;;;11.97;100.00;96370.09;1030811;28;19925;-69
2022/05/17 01:40:28;;;;;;;;;;;;;;;11.94;100.00;96374.06;1038752;28;20104;-68
2022/05/17 01:40:59;;;;;;;;;;;;;;;11.93;100.00;96375.06;1034666;28;19914;-67
2022/05/17 01:41:29;;;;;;;;;;;;;;;11.90;100.00;96369.53;1030149;28;19924;-69
2022/05/17 01:41:59;;;;;;;;;;;;;;;11.90;100.00;96365.06;1026035;28;19918;-68
2022/05/17 01:42:30;;;;;;;;;;;;;;;11.89;100.00;96374.00;1026689;28;19983;-68
2022/05/17 01:43:00;;;;;;;;;;;;;;;11.92;100.00;96364.81;1030154;28;19917;-68
2022/05/17 01:43:30;;;;;;;;;;;;;;;11.91;100.00;96371.94;1026365;28;19922;-69
2022/05/17 01:44:01;;;;;;;;;;;;;;;11.91;100.00;96371.13;1022751;28;19929;-68
2022/05/17 01:44:31;;;;;;;;;;;;;;;11.91;100.00;96376.41;1026650;28;19972;-68
2022/05/17 01:45:02;;;;;;;;;;;;;;;11.91;100.00;96366.66;1030657;28;20227;-69
2022/05/17 01:45:32;;;;;;;;;;;;;;;11.88;100.00;96372.44;1031235;28;20024;-69
2022/05/17 01:46:06;;;;;;;;;;;;;;;11.88;100.00;96375.06;1038492;28;19928;-68
2022/05/17 01:46:37;;;;;;;;;;;;;;;11.87;100.00;96376.13;1030753;28;19921;-68
2022/05/17 01:47:07;;;;;;;;;;;;;;;11.90;100.00;96366.91;1031270;28;19921;-67
2022/05/17 01:47:37;;;;;;;;;;;;;;;11.93;100.00;96375.06;1030170;28;19961;-68
2022/05/17 01:48:08;;;;;;;;;;;;;;;11.93;100.00;96369.81;1030895;28;19917;-68
2022/05/17 01:48:38;;;;;;;;;;;;;;;11.91;100.00;96371.13;1038258;28;19929;-68
2022/05/17 01:49:09;;;;;;;;;;;;;;;11.91;100.00;96366.66;1038640;28;19924;-68
2022/05/17 01:49:39;;;;;;;;;;;;;;;11.91;100.00;96366.66;1034393;28;20449;-68
2022/05/17 01:50:09;;;;;;;;;;;;;;;11.88;100.00;96364.53;1026452;28;19969;-69
2022/05/17 01:50:40;;;;;;;;;;;;;;;11.91;100.00;96369.28;1026549;28;20590;-68
2022/05/17 01:51:10;;;;;;;;;;;;;;;11.90;100.00;96366.91;1030582;28;19924;-69
2022/05/17 01:51:40;;;;;;;;;;;;;;;11.89;100.00;96366.13;1034865;28;20417;-68
2022/05/17 01:52:11;;;;;;;;;;;;;;;11.86;100.00;96368.47;1039546;28;19948;-68
2022/05/17 01:52:44;;;;;;;;;;;;;;;11.83;100.00;96364.47;1039028;28;19913;-69
2022/05/17 01:53:15;;;;;;;;;;;;;;;11.84;100.00;96366.09;1042424;28;19932;-68
2022/05/17 01:53:45;;;;;;;;;;;;;;;11.83;100.00;96372.34;1044716;28;19909;-69
2022/05/17 01:54:15;;;;;;;;;;;;;;;11.81;100.00;96366.56;1035636;28;20109;-69
2022/05/17 01:54:46;;;;;;;;;;;;;;;11.78;100.00;96365.25;1033670;28;19906;-69
2022/05/17 01:55:16;;;;;;;;;;;;;;;11.77;100.00;96368.13;1027407;28;19907;-68
2022/05/17 01:55:46;;;;;;;;;;;;;;;11.76;100.00;96369.94;1027409;28;19903;-68
2022/05/17 01:56:17;;;;;;;;;;;;;;;11.73;100.00;96364.41;1027710;28;20364;-68
2022/05/17 01:56:47;;;;;;;;;;;;;;;11.76;100.00;96363.91;1031464;28;20363;-68
2022/05/17 01:57:17;;;;;;;;;;;;;;;11.79;100.00;96368.66;1039541;28;19913;-68
2022/05/17 01:57:48;;;;;;;;;;;;;;;11.77;100.00;96368.94;1043649;28;19947;-68
2022/05/17 01:58:18;;;;;;;;;;;;;;;11.77;100.00;96365.50;1039052;28;20361;-69
2022/05/17 01:58:48;;;;;;;;;;;;;;;11.75;100.00;96362.34;1035300;28;19909;-67
2022/05/17 01:59:19;;;;;;;;;;;;;;;11.74;100.00;96366.03;1039705;28;19910;-67
2022/05/17 01:59:49;;;;;;;;;;;;;;;11.72;100.00;96363.63;1038948;28;19913;-67
2022/05/17 02:00:20;;;;;;;;;;;;;;;11.72;100.00;96373.34;1035658;28;19914;-67
2022/05/17 02:00:50;;;;;;;;;;;;;;;11.73;100.00;96361.78;1035453;28;19940;-69
2022/05/17 02:01:20;;;;;;;;;;;;;;;11.67;100.00;96365.41;1035584;28;19909;-68
2022/05/17 02:01:51;;;;;;;;;;;;;;;11.66;100.00;96363.84;1031770;28;19917;-69
2022/05/17 02:02:22;;;;;;;;;;;;;;;11.71;100.00;96369.16;1035604;28;19957;-68
2022/05/17 02:02:52;;;;;;;;;;;;;;;11.68;100.00;96364.41;1031450;28;20177;-68
2022/05/17 02:03:23;;;;;;;;;;;;;;;11.65;100.00;96367.53;1034131;28;19924;-69
2022/05/17 02:03:53;;;;;;;;;;;;;;;11.64;100.00;96371.22;1035607;28;20318;-68
2022/05/17 02:04:24;;;;;;;;;;;;;;;11.64;100.00;96371.22;1031689;28;19920;-68
2022/05/17 02:04:54;;;;;;;;;;;;;;;11.60;100.00;96364.84;1035620;28;19971;-68
2022/05/17 02:05:25;;;;;;;;;;;;;;;11.60;100.00;96370.91;1039492;28;20389;-70
2022/05/17 02:05:55;;;;;;;;;;;;;;;11.60;100.00;96365.63;1039869;28;19928;-68
2022/05/17 02:06:25;;;;;;;;;;;;;;;11.59;100.00;96364.06;1044075;28;19939;-69
2022/05/17 02:06:55;;;;;;;;;;;;;;;11.59;100.00;96363.28;1044001;28;19974;-68
2022/05/17 02:07:26;;;;;;;;;;;;;;;11.63;100.00;96366.97;1044119;28;20390;-68
2022/05/17 02:07:59;;;;;;;;;;;;;;;11.60;100.00;96364.84;1039494;28;20394;-67
2022/05/17 02:08:29;;;;;;;;;;;;;;;11.59;100.00;96363.28;1039776;28;19921;-68
2022/05/17 02:09:00;;;;;;;;;;;;;;;11.64;100.00;96365.94;1035561;28;20371;-67
2022/05/17 02:09:33;;;;;;;;;;;;;;;11.61;100.00;96364.63;1035436;28;19971;-69
2022/05/17 02:10:04;;;;;;;;;;;;;;;11.57;100.00;96363.53;1030658;28;20370;-68
2022/05/17 02:10:34;;;;;;;;;;;;;;;11.56;100.00;96365.34;1023922;28;20368;-68
2022/05/17 02:11:07;;;;;;;;;;;;;;;11.60;100.00;96367.47;1027442;28;19922;-71
2022/05/17 02:11:38;;;;;;;;;;;;;;;11.57;100.00;96363.53;1031466;28;19921;-68
2022/05/17 02:12:09;;;;;;;;;;;;;;;11.53;100.00;96363.22;1027985;28;19919;-68
2022/05/17 02:12:39;;;;;;;;;;;;;;;11.53;100.00;96365.84;1027569;28;20024;-67
2022/05/17 02:13:10;;;;;;;;;;;;;;;11.51;100.00;96367.97;1027557;28;19924;-68
2022/05/17 02:13:41;;;;;;;;;;;;;;;11.53;100.00;96360.59;1034733;28;19917;-68
2022/05/17 02:14:12;;;;;;;;;;;;;;;11.54;100.00;96362.22;1039784;28;19917;-68
2022/05/17 02:14:42;;;;;;;;;;;;;;;11.59;100.00;96363.28;1039585;28;19913;-68
2022/05/17 02:15:12;;;;;;;;;;;;;;;11.55;100.00;96363.78;1039775;28;19913;-68
2022/05/17 02:15:42;;;;;;;;;;;;;;;11.51;100.00;96357.44;1039675;28;19917;-69
2022/05/17 02:16:13;;;;;;;;;;;;;;;11.49;100.00;96364.00;1039548;28;20184;-68
2022/05/17 02:16:43;;;;;;;;;;;;;;;11.47;100.00;96355.59;1038878;28;19924;-68
2022/05/17 02:17:13;;;;;;;;;;;;;;;11.44;100.00;96362.13;1031569;28;19945;-67
2022/05/17 02:17:44;;;;;;;;;;;;;;;11.45;100.00;96362.94;1035441;28;20569;-68
2022/05/17 02:18:17;;;;;;;;;;;;;;;11.42;100.00;96358.97;1035680;28;19921;-68
2022/05/17 02:18:47;;;;;;;;;;;;;;;11.41;100.00;96356.59;1035759;28;19917;-68
2022/05/17 02:19:22;;;;;;;;;;;;;;;11.44;100.00;96358.72;1039952;28;19917;-68
2022/05/17 02:19:53;;;;;;;;;;;;;;;11.40;100.00;96361.06;1034794;28;19921;-69
2022/05/17 02:20:23;;;;;;;;;;;;;;;11.36;100.00;96362.59;1038118;28;20303;-68
2022/05/17 02:20:53;;;;;;;;;;;;;;;11.38;100.00;96362.34;1035813;28;19913;-68
2022/05/17 02:21:23;;;;;;;;;;;;;;;11.41;100.00;96362.63;1035459;28;19913;-68
2022/05/17 02:21:54;;;;;;;;;;;;;;;11.41;100.00;96362.63;1039311;28;20367;-68
2022/05/17 02:22:24;;;;;;;;;;;;;;;11.42;100.00;96364.22;1035683;28;19920;-67
2022/05/17 02:22:54;;;;;;;;;;;;;;;11.41;100.00;96357.38;1039689;28;19917;-68
2022/05/17 02:23:26;;;;;;;;;;;;;;;11.39;100.00;96359.47;1039600;28;20424;-68
2022/05/17 02:23:57;;;;;;;;;;;;;;;11.43;100.00;96359.75;1039595;28;19976;-68
2022/05/17 02:24:30;;;;;;;;;;;;;;;11.40;100.00;96361.06;1035458;28;19914;-67
2022/05/17 02:25:00;;;;;;;;;;;;;;;11.47;100.00;96368.72;1035610;28;20000;-68
2022/05/17 02:25:30;;;;;;;;;;;;;;;11.44;100.00;96366.59;1031291;28;19913;-68
2022/05/17 02:26:01;;;;;;;;;;;;;;;11.41;100.00;96367.91;1027616;28;19921;-68
2022/05/17 02:26:31;;;;;;;;;;;;;;;11.40;100.00;96366.31;1031545;28;19910;-68
2022/05/17 02:27:02;;;;;;;;;;;;;;;11.43;100.00;96365.78;1031306;28;19972;-68
2022/05/17 02:27:36;;;;;;;;;;;;;;;11.41;100.00;96365.28;1035941;28;19913;-69
2022/05/17 02:28:07;;;;;;;;;;;;;;;11.37;100.00;96360.75;1039414;28;20012;-68
2022/05/17 02:28:38;;;;;;;;;;;;;;;11.35;100.00;96368.09;1031279;28;19953;-68
2022/05/17 02:29:08;;;;;;;;;;;;;;;11.33;100.00;96363.91;1031632;28;20335;-68
2022/05/17 02:29:39;;;;;;;;;;;;;;;11.19;100.00;96335.66;1031566;28;20291;-67
2022/05/17 02:30:09;;;;;;;;;;;;;;;11.32;100.00;96364.13;1035400;28;19936;-68
2022/05/17 02:30:41;;;;;;;;;;;;;;;11.29;100.00;96359.38;1044087;28;20003;-67
2022/05/17 02:31:12;;;;;;;;;;;;;;;11.27;100.00;96361.50;1039535;28;19921;-68
2022/05/17 02:31:42;;;;;;;;;;;;;;;11.31;100.00;96367.81;1031630;28;20323;-68
2022/05/17 02:32:14;;;;;;;;;;;;;;;11.38;100.00;96362.34;1031073;28;19906;-68
2022/05/17 02:32:44;;;;;;;;;;;;;;;11.36;100.00;96370.47;1031752;28;19916;-67
2022/05/17 02:33:14;;;;;;;;;;;;;;;11.40;100.00;96371.56;1036084;28;20402;-68
2022/05/17 02:33:45;;;;;;;;;;;;;;;11.36;100.00;96370.47;1043351;28;19909;-68
2022/05/17 02:34:16;;;;;;;;;;;;;;;11.36;100.00;96370.47;1039812;28;19992;-68
2022/05/17 02:34:46;;;;;;;;;;;;;;;11.35;100.00;96368.09;1035740;28;19993;-68
2022/05/17 02:35:17;;;;;;;;;;;;;;;11.32;100.00;96369.41;1035615;28;19916;-68
2022/05/17 02:35:48;;;;;;;;;;;;;;;11.31;100.00;96367.81;1035101;28;19948;-68
2022/05/17 02:36:18;;;;;;;;;;;;;;;11.25;100.00;96374.84;1035515;28;19918;-68
2022/05/17 02:36:48;;;;;;;;;;;;;;;11.22;100.00;96375.34;1035566;28;19902;-68
2022/05/17 02:37:19;;;;;;;;;;;;;;;11.20;100.00;96371.38;1035386;28;20498;-68
2022/05/17 02:37:49;;;;;;;;;;;;;;;11.20;100.00;96376.66;1031459;28;19917;-68
2022/05/17 02:38:19;;;;;;;;;;;;;;;11.24;100.00;96377.75;1027152;28;19917;-68
2022/05/17 02:38:50;;;;;;;;;;;;;;;11.25;100.00;96377.50;1023969;28;19946;-68
2022/05/17 02:39:20;;;;;;;;;;;;;;;11.22;100.00;96382.44;1027212;28;20443;-68
2022/05/17 02:39:50;;;;;;;;;;;;;;;11.23;100.00;96386.66;1026831;28;19969;-68
2022/05/17 02:40:20;;;;;;;;;;;;;;;11.20;100.00;96382.72;1027302;28;20621;-68
2022/05/17 02:40:54;;;;;;;;;;;;;;;11.22;100.00;96379.81;1028097;28;19922;-68
2022/05/17 02:41:24;;;;;;;;;;;;;;;11.22;100.00;96374.56;1035963;28;20004;-68
2022/05/17 02:41:54;;;;;;;;;;;;;;;11.22;100.00;96374.56;1035754;28;19964;-68
2022/05/17 02:42:24;;;;;;;;;;;;;;;11.25;100.00;96379.31;1035208;28;20342;-69
2022/05/17 02:42:55;;;;;;;;;;;;;;;11.26;100.00;96375.66;1035704;28;19914;-68